createdAt,value
2019-05-18T00:00:09.082Z,3.77
2019-05-18T00:02:37.414Z,7.60
2019-05-18T00:05:08.874Z,4.53
2019-05-18T00:07:37.179Z,4.37
2019-05-18T00:10:06.398Z,7.35
2019-05-18T00:12:34.888Z,3.33
2019-05-18T00:15:04.331Z,3.25
2019-05-18T00:17:32.653Z,3.40
2019-05-18T00:20:00.953Z,2.85
2019-05-18T00:22:29.275Z,2.30
2019-05-18T00:24:57.641Z,2.95
2019-05-18T00:27:25.955Z,4.03
2019-05-18T00:29:54.450Z,4.92
2019-05-18T00:32:23.120Z,4.65
2019-05-18T00:34:51.470Z,3.20
2019-05-18T00:37:19.775Z,6.35
2019-05-18T00:39:48.242Z,2.33
2019-05-18T00:42:16.599Z,2.40
2019-05-18T00:44:44.983Z,2.85
2019-05-18T00:47:13.276Z,3.95
2019-05-18T00:49:41.696Z,4.33
2019-05-18T00:52:10.103Z,3.30
2019-05-18T00:54:38.484Z,2.47
2019-05-18T00:57:06.850Z,3.35
2019-05-18T00:59:35.334Z,4.60
2019-05-18T01:02:03.694Z,3.75
2019-05-18T01:04:32.020Z,2.52
2019-05-18T01:07:00.415Z,4.17
2019-05-18T01:09:28.909Z,4.45
2019-05-18T01:11:57.298Z,3.83
2019-05-18T01:14:25.605Z,4.00
2019-05-18T01:16:54.022Z,3.08
2019-05-18T01:19:22.440Z,4.40
2019-05-18T01:21:50.753Z,2.12
2019-05-18T01:24:19.435Z,2.65
2019-05-18T01:26:47.727Z,3.45
2019-05-18T01:29:16.028Z,3.22
2019-05-18T01:31:44.346Z,3.25
2019-05-18T01:34:12.640Z,3.52
2019-05-18T01:36:40.954Z,1.80
2019-05-18T01:39:09.340Z,2.75
2019-05-18T01:41:37.745Z,2.15
2019-05-18T01:44:06.179Z,4.30
2019-05-18T01:46:34.859Z,2.50
2019-05-18T01:49:03.315Z,2.85
2019-05-18T01:51:31.629Z,3.02
2019-05-18T01:53:59.991Z,1.72
2019-05-18T01:56:28.316Z,2.10
2019-05-18T01:58:56.605Z,1.98
2019-05-18T02:01:24.935Z,2.35
2019-05-18T02:03:53.226Z,3.05
2019-05-18T02:06:21.550Z,2.75
2019-05-18T02:08:49.833Z,3.12
2019-05-18T02:11:18.151Z,2.02
2019-05-18T02:13:46.513Z,3.92
2019-05-18T02:16:14.829Z,2.62
2019-05-18T02:18:43.130Z,2.60
2019-05-18T02:21:11.450Z,2.50
2019-05-18T02:23:40.191Z,3.87
2019-05-18T02:26:08.479Z,2.27
2019-05-18T02:28:36.789Z,2.92
2019-05-18T02:31:07.449Z,3.10
2019-05-18T02:33:35.118Z,4.47
2019-05-18T02:36:03.545Z,3.72
2019-05-18T02:38:31.863Z,2.20
2019-05-18T02:41:00.162Z,2.52
2019-05-18T02:43:28.472Z,2.50
2019-05-18T02:45:56.769Z,3.35
2019-05-18T02:48:25.155Z,8.58
2019-05-18T02:50:53.509Z,2.55
2019-05-18T02:53:21.824Z,1.92
2019-05-18T02:55:50.116Z,2.47
2019-05-18T02:58:18.434Z,2.72
2019-05-18T03:00:47.484Z,2.42
2019-05-18T03:03:15.945Z,2.60
2019-05-18T03:05:46.455Z,3.25
2019-05-18T03:08:14.775Z,2.45
2019-05-18T03:10:43.127Z,3.25
2019-05-18T03:13:11.431Z,2.10
2019-05-18T03:15:39.829Z,3.35
2019-05-18T03:18:08.228Z,2.85
2019-05-18T03:20:36.616Z,2.85
2019-05-18T03:23:05.009Z,2.58
2019-05-18T03:25:33.309Z,2.55
2019-05-18T03:28:01.597Z,3.42
2019-05-18T03:30:30.004Z,2.67
2019-05-18T03:32:58.290Z,2.95
2019-05-18T03:35:27.119Z,2.27
2019-05-18T03:37:55.392Z,2.00
2019-05-18T03:40:23.709Z,3.15
2019-05-18T03:42:52.072Z,2.55
2019-05-18T03:45:20.427Z,2.22
2019-05-18T03:47:48.925Z,2.25
2019-05-18T03:50:17.473Z,2.70
2019-05-18T03:52:45.765Z,2.12
2019-05-18T03:55:14.345Z,2.85
2019-05-18T03:57:42.794Z,5.12
2019-05-18T04:00:11.615Z,2.00
2019-05-18T04:02:40.000Z,2.98
2019-05-18T04:05:09.115Z,2.22
2019-05-18T04:07:37.388Z,1.70
2019-05-18T04:10:06.636Z,3.02
2019-05-18T04:12:35.013Z,2.45
2019-05-18T04:15:04.242Z,2.00
2019-05-18T04:17:32.523Z,2.47
2019-05-18T04:20:00.909Z,2.17
2019-05-18T04:22:30.816Z,1.98
2019-05-18T04:25:00.598Z,2.47
2019-05-18T04:27:28.876Z,2.85
2019-05-18T04:29:57.305Z,2.52
2019-05-18T04:32:25.612Z,2.15
2019-05-18T04:34:53.995Z,2.83
2019-05-18T04:37:22.301Z,3.35
2019-05-18T04:39:50.664Z,1.80
2019-05-18T04:42:18.970Z,5.35
2019-05-18T04:44:47.661Z,2.27
2019-05-18T04:47:16.311Z,2.17
2019-05-18T04:50:03.546Z,2.15
2019-05-18T04:52:15.005Z,3.58
2019-05-18T04:54:43.463Z,2.37
2019-05-18T04:57:11.792Z,3.05
2019-05-18T04:59:40.083Z,2.17
2019-05-18T05:02:08.430Z,2.45
2019-05-18T05:04:36.710Z,2.08
2019-05-18T05:07:05.028Z,2.52
2019-05-18T05:09:33.483Z,3.37
2019-05-18T05:12:01.896Z,3.47
2019-05-18T05:14:30.367Z,1.95
2019-05-18T05:16:58.693Z,2.22
2019-05-18T05:19:27.079Z,2.80
2019-05-18T05:21:55.386Z,2.72
2019-05-18T05:24:23.792Z,2.12
2019-05-18T05:26:52.142Z,2.25
2019-05-18T05:29:20.401Z,2.35
2019-05-18T05:31:48.708Z,2.35
2019-05-18T05:34:16.993Z,2.35
2019-05-18T05:36:45.303Z,2.10
2019-05-18T05:39:13.626Z,4.67
2019-05-18T05:41:41.915Z,2.52
2019-05-18T05:44:10.224Z,3.47
2019-05-18T05:46:38.520Z,3.22
2019-05-18T05:49:06.837Z,1.95
2019-05-18T05:51:35.145Z,3.12
2019-05-18T05:54:03.459Z,2.22
2019-05-18T05:56:31.765Z,1.87
2019-05-18T05:59:00.067Z,2.22
2019-05-18T06:01:28.391Z,4.17
2019-05-18T06:03:56.701Z,2.75
2019-05-18T06:06:24.999Z,2.30
2019-05-18T06:08:53.331Z,2.08
2019-05-18T06:11:21.671Z,2.08
2019-05-18T06:13:49.995Z,3.12
2019-05-18T06:16:18.362Z,2.45
2019-05-18T06:18:46.866Z,2.50
2019-05-18T06:21:15.232Z,2.75
2019-05-18T06:23:43.552Z,1.80
2019-05-18T06:26:11.853Z,2.60
2019-05-18T06:28:40.150Z,2.58
2019-05-18T06:31:08.571Z,2.05
2019-05-18T06:33:36.924Z,3.25
2019-05-18T06:36:05.311Z,2.27
2019-05-18T06:38:33.647Z,2.37
2019-05-18T06:41:01.965Z,2.37
2019-05-18T06:43:30.263Z,3.35
2019-05-18T06:45:59.384Z,2.62
2019-05-18T06:48:27.852Z,2.10
2019-05-18T06:51:06.892Z,7.50
2019-05-18T06:53:26.263Z,3.65
2019-05-18T06:55:54.722Z,4.08
2019-05-18T06:58:23.746Z,5.78
2019-05-18T07:00:52.072Z,3.75
2019-05-18T07:03:20.563Z,3.33
2019-05-18T07:05:49.149Z,2.60
2019-05-18T07:08:17.493Z,2.95
2019-05-18T07:10:45.808Z,4.22
2019-05-18T07:13:14.475Z,3.05
2019-05-18T07:15:42.957Z,3.50
2019-05-18T07:18:11.319Z,2.75
2019-05-18T07:20:39.701Z,6.03
2019-05-18T07:23:08.026Z,2.27
2019-05-18T07:25:36.331Z,3.80
2019-05-18T07:28:04.808Z,8.10
2019-05-18T07:30:33.122Z,3.55
2019-05-18T07:33:01.431Z,3.75
2019-05-18T07:35:29.747Z,2.80
2019-05-18T07:37:58.176Z,4.00
2019-05-18T07:40:26.771Z,7.80
2019-05-18T07:42:55.245Z,2.67
2019-05-18T07:45:23.605Z,3.00
2019-05-18T07:47:51.924Z,2.22
2019-05-18T07:50:20.505Z,3.52
2019-05-18T07:52:48.889Z,3.15
2019-05-18T07:55:17.172Z,4.08
2019-05-18T07:57:45.517Z,3.47
2019-05-18T08:00:14.100Z,3.35
2019-05-18T08:02:42.480Z,3.52
2019-05-18T08:05:10.837Z,6.40
2019-05-18T08:07:39.321Z,17.23
2019-05-18T08:10:09.463Z,3.37
2019-05-18T08:12:37.864Z,2.65
2019-05-18T08:15:08.156Z,4.33
2019-05-18T08:17:36.482Z,3.45
2019-05-18T08:20:07.207Z,4.08
2019-05-18T08:22:35.553Z,4.45
2019-05-18T08:25:05.850Z,6.60
2019-05-18T08:27:34.163Z,6.53
2019-05-18T08:30:02.494Z,5.25
2019-05-18T08:32:30.786Z,4.72
2019-05-18T08:34:59.113Z,7.17
2019-05-18T08:37:27.549Z,6.75
2019-05-18T08:39:55.873Z,4.65
2019-05-18T08:42:24.241Z,6.80
2019-05-18T08:44:52.558Z,4.65
2019-05-18T08:47:20.888Z,5.35
2019-05-18T08:49:49.188Z,3.22
2019-05-18T08:52:17.498Z,3.30
2019-05-18T08:54:45.823Z,3.27
2019-05-18T08:57:14.138Z,3.02
2019-05-18T08:59:42.490Z,4.15
2019-05-18T09:02:10.857Z,3.62
2019-05-18T09:04:40.406Z,2.12
2019-05-18T09:07:08.718Z,2.55
2019-05-18T09:09:37.221Z,2.55
2019-05-18T09:12:05.869Z,7.08
2019-05-18T09:14:34.314Z,2.95
2019-05-18T09:17:02.566Z,6.00
2019-05-18T09:19:30.945Z,2.33
2019-05-18T09:21:59.217Z,5.22
2019-05-18T09:24:27.575Z,3.37
2019-05-18T09:26:55.854Z,3.25
2019-05-18T09:29:24.221Z,6.50
2019-05-18T09:31:52.660Z,12.07
2019-05-18T09:34:21.026Z,8.68
2019-05-18T09:36:49.458Z,11.83
2019-05-18T09:39:19.282Z,10.98
2019-05-18T09:41:47.611Z,12.47
2019-05-18T09:44:16.268Z,9.10
2019-05-18T09:46:44.754Z,8.83
2019-05-18T09:49:13.054Z,9.35
2019-05-18T09:51:41.366Z,10.72
2019-05-18T09:54:09.706Z,10.85
2019-05-18T09:56:38.106Z,9.80
2019-05-18T09:59:06.629Z,11.45
2019-05-18T10:01:35.051Z,7.28
2019-05-18T10:04:03.347Z,7.90
2019-05-18T10:06:31.839Z,5.50
2019-05-18T10:09:00.131Z,9.18
2019-05-18T10:11:28.494Z,7.22
2019-05-18T10:13:56.788Z,7.87
2019-05-18T10:16:25.108Z,7.00
2019-05-18T10:18:53.405Z,10.00
2019-05-18T10:21:21.733Z,6.60
2019-05-18T10:23:50.025Z,8.83
2019-05-18T10:26:18.337Z,8.58
2019-05-18T10:28:46.719Z,6.97
2019-05-18T10:31:15.282Z,6.65
2019-05-18T10:33:43.595Z,5.80
2019-05-18T10:36:11.984Z,6.80
2019-05-18T10:38:40.229Z,8.95
2019-05-18T10:41:08.535Z,7.65
2019-05-18T10:43:36.873Z,7.40
2019-05-18T10:46:05.236Z,5.97
2019-05-18T10:48:33.555Z,8.28
2019-05-18T10:51:05.301Z,6.45
2019-05-18T10:53:31.877Z,5.30
2019-05-18T10:56:00.177Z,7.78
2019-05-18T10:58:28.531Z,6.33
2019-05-18T11:00:56.842Z,7.58
2019-05-18T11:03:25.288Z,6.42
2019-05-18T11:05:53.579Z,6.12
2019-05-18T11:08:22.112Z,7.25
2019-05-18T11:10:50.573Z,6.70
2019-05-18T11:13:19.238Z,10.30
2019-05-18T11:15:47.596Z,6.30
2019-05-18T11:18:15.935Z,6.83
2019-05-18T11:20:44.241Z,4.30
2019-05-18T11:23:12.551Z,7.65
2019-05-18T11:25:41.615Z,4.13
2019-05-18T11:28:09.983Z,7.62
2019-05-18T11:30:38.292Z,8.05
2019-05-18T11:33:06.673Z,9.60
2019-05-18T11:35:35.127Z,22.58
2019-05-18T11:38:03.508Z,19.80
2019-05-18T11:40:31.899Z,13.78
2019-05-18T11:43:00.320Z,19.62
2019-05-18T11:45:28.972Z,23.57
2019-05-18T11:47:57.277Z,11.40
2019-05-18T11:50:25.731Z,11.83
2019-05-18T11:52:54.191Z,13.05
2019-05-18T11:55:24.814Z,14.55
2019-05-18T11:57:53.182Z,18.55
2019-05-18T12:00:22.176Z,17.45
2019-05-18T12:02:50.544Z,14.78
2019-05-18T12:05:18.867Z,13.43
2019-05-18T12:07:47.206Z,17.20
2019-05-18T12:10:18.613Z,15.45
2019-05-18T12:12:47.136Z,14.23
2019-05-18T12:15:15.875Z,13.00
2019-05-18T12:17:44.247Z,17.85
2019-05-18T12:20:13.032Z,12.47
2019-05-18T12:22:41.317Z,16.45
2019-05-18T12:25:10.483Z,16.50
2019-05-18T12:27:38.927Z,15.40
2019-05-18T12:30:08.628Z,15.75
2019-05-18T12:32:37.126Z,13.62
2019-05-18T12:35:07.639Z,20.65
2019-05-18T12:37:35.963Z,13.55
2019-05-18T12:40:06.122Z,18.62
2019-05-18T12:42:34.503Z,15.45
2019-05-18T12:45:02.988Z,7.97
2019-05-18T12:47:31.485Z,13.45
2019-05-18T12:49:59.784Z,13.48
2019-05-18T12:52:28.157Z,11.03
2019-05-18T12:54:56.499Z,11.90
2019-05-18T12:57:24.823Z,14.93
2019-05-18T12:59:53.184Z,13.58
2019-05-18T13:02:21.512Z,10.88
2019-05-18T13:04:49.814Z,8.73
2019-05-18T13:07:18.162Z,12.18
2019-05-18T13:09:46.541Z,12.13
2019-05-18T13:12:15.067Z,10.75
2019-05-18T13:14:43.374Z,10.00
2019-05-18T13:17:11.714Z,8.78
2019-05-18T13:19:40.054Z,10.75
2019-05-18T13:22:08.487Z,7.15
2019-05-18T13:24:44.914Z,8.73
2019-05-18T13:27:06.778Z,6.60
2019-05-18T13:29:35.154Z,6.75
2019-05-18T13:32:03.701Z,9.23
2019-05-18T13:34:32.055Z,8.95
2019-05-18T13:37:00.423Z,10.50
2019-05-18T13:39:28.830Z,9.10
2019-05-18T13:41:57.214Z,4.58
2019-05-18T13:44:25.532Z,3.75
2019-05-18T13:46:54.013Z,5.00
2019-05-18T13:49:22.321Z,6.72
2019-05-18T13:51:50.777Z,7.55
2019-05-18T13:54:19.107Z,4.97
2019-05-18T13:56:47.484Z,7.20
2019-05-18T13:59:15.812Z,5.08
2019-05-18T14:01:44.110Z,8.30
2019-05-18T14:04:12.495Z,7.53
2019-05-18T14:06:40.892Z,9.98
2019-05-18T14:09:09.225Z,6.30
2019-05-18T14:11:37.529Z,5.95
2019-05-18T14:14:06.049Z,3.95
2019-05-18T14:16:34.389Z,6.60
2019-05-18T14:19:03.171Z,6.75
2019-05-18T14:21:31.455Z,4.47
2019-05-18T14:23:59.873Z,7.55
2019-05-18T14:26:28.310Z,7.90
2019-05-18T14:28:56.754Z,6.78
2019-05-18T14:31:25.048Z,9.70
2019-05-18T14:33:53.420Z,4.37
2019-05-18T14:36:21.835Z,5.78
2019-05-18T14:38:50.167Z,2.65
2019-05-18T14:41:18.714Z,6.00
2019-05-18T14:43:46.997Z,4.17
2019-05-18T14:46:15.331Z,2.98
2019-05-18T14:48:43.745Z,7.47
2019-05-18T14:51:12.025Z,3.15
2019-05-18T14:53:40.507Z,6.53
2019-05-18T14:56:08.958Z,7.50
2019-05-18T14:58:37.366Z,4.83
2019-05-18T15:01:07.007Z,3.58
2019-05-18T15:03:35.300Z,3.27
2019-05-18T15:06:03.711Z,3.75
2019-05-18T15:08:32.000Z,7.55
2019-05-18T15:11:00.401Z,4.83
2019-05-18T15:13:28.705Z,4.33
2019-05-18T15:15:57.294Z,3.70
2019-05-18T15:18:25.599Z,4.85
2019-05-18T15:20:53.989Z,3.27
2019-05-18T15:23:22.368Z,6.28
2019-05-18T15:25:51.475Z,4.33
2019-05-18T15:28:20.118Z,8.58
2019-05-18T15:30:48.453Z,5.75
2019-05-18T15:33:16.794Z,4.05
2019-05-18T15:35:45.215Z,8.78
2019-05-18T15:38:13.705Z,4.45
2019-05-18T15:40:42.007Z,5.97
2019-05-18T15:43:10.305Z,8.88
2019-05-18T15:45:38.626Z,5.75
2019-05-18T15:48:07.010Z,6.90
2019-05-18T15:50:35.350Z,4.95
2019-05-18T15:53:03.686Z,9.35
2019-05-18T15:55:32.037Z,4.03
2019-05-18T15:58:00.331Z,7.70
2019-05-18T16:00:28.710Z,6.10
2019-05-18T16:02:57.196Z,7.15
2019-05-18T16:05:25.508Z,6.17
2019-05-18T16:07:53.901Z,10.15
2019-05-18T16:10:22.444Z,9.88
2019-05-18T16:12:50.807Z,3.80
2019-05-18T16:15:19.179Z,5.42
2019-05-18T16:17:47.564Z,6.60
2019-05-18T16:20:16.289Z,5.12
2019-05-18T16:22:44.834Z,4.20
2019-05-18T16:25:13.434Z,6.78
2019-05-18T16:27:41.831Z,6.95
2019-05-18T16:30:10.768Z,6.78
2019-05-18T16:32:39.152Z,7.37
2019-05-18T16:35:10.861Z,16.85
2019-05-18T16:37:39.252Z,26.60
2019-05-18T16:40:08.422Z,23.67
2019-05-18T16:42:36.844Z,16.85
2019-05-18T16:45:08.733Z,19.95
2019-05-18T16:47:37.060Z,22.82
2019-05-18T16:50:08.946Z,18.27
2019-05-18T16:52:37.270Z,21.87
2019-05-18T16:55:09.389Z,18.82
2019-05-18T16:57:37.696Z,14.50
2019-05-18T17:00:15.957Z,16.45
2019-05-18T17:02:42.730Z,16.37
2019-05-18T17:05:11.985Z,26.90
2019-05-18T17:07:40.403Z,18.05
2019-05-18T17:10:09.173Z,18.25
2019-05-18T17:12:37.557Z,17.48
2019-05-18T17:15:10.004Z,17.35
2019-05-18T17:17:38.441Z,14.90
2019-05-18T17:20:08.153Z,16.10
2019-05-18T17:22:36.443Z,17.05
2019-05-18T17:25:05.497Z,22.25
2019-05-18T17:27:33.889Z,16.55
2019-05-18T17:30:02.569Z,17.15
2019-05-18T17:32:30.881Z,13.00
2019-05-18T17:34:59.300Z,19.42
2019-05-18T17:37:27.634Z,14.68
2019-05-18T17:39:55.953Z,14.90
2019-05-18T17:42:24.325Z,16.82
2019-05-18T17:44:52.640Z,13.45
2019-05-18T17:47:21.182Z,11.83
2019-05-18T17:49:49.520Z,17.85
2019-05-18T17:52:17.825Z,19.40
2019-05-18T17:54:46.319Z,15.95
2019-05-18T17:57:14.623Z,14.93
2019-05-18T17:59:42.935Z,15.85
2019-05-18T18:02:12.886Z,16.05
2019-05-18T18:04:41.225Z,19.48
2019-05-18T18:07:11.912Z,14.20
2019-05-18T18:09:40.190Z,14.40
2019-05-18T18:12:08.471Z,25.40
2019-05-18T18:14:36.796Z,17.30
2019-05-18T18:17:05.337Z,16.65
2019-05-18T18:19:33.657Z,20.08
2019-05-18T18:22:02.083Z,15.03
2019-05-18T18:24:30.384Z,18.73
2019-05-18T18:26:58.698Z,15.35
2019-05-18T18:29:27.083Z,13.40
2019-05-18T18:31:55.558Z,15.88
2019-05-18T18:34:23.836Z,16.07
2019-05-18T18:36:52.173Z,16.42
2019-05-18T18:39:20.503Z,14.05
2019-05-18T18:41:48.920Z,13.95
2019-05-18T18:44:17.283Z,12.28
2019-05-18T18:46:45.646Z,12.90
2019-05-18T18:49:14.016Z,16.45
2019-05-18T18:51:42.330Z,19.35
2019-05-18T18:54:12.625Z,14.78
2019-05-18T18:56:40.810Z,11.68
2019-05-18T18:59:09.145Z,13.55
2019-05-18T19:01:37.594Z,16.35
2019-05-18T19:04:05.870Z,13.00
2019-05-18T19:06:34.357Z,24.65
2019-05-18T19:09:03.001Z,12.00
2019-05-18T19:11:31.376Z,14.85
2019-05-18T19:13:59.838Z,14.25
2019-05-18T19:16:28.310Z,16.90
2019-05-18T19:18:56.641Z,13.48
2019-05-18T19:21:24.935Z,14.75
2019-05-18T19:23:53.284Z,13.85
2019-05-18T19:26:21.598Z,10.80
2019-05-18T19:28:49.986Z,17.73
2019-05-18T19:31:18.289Z,13.83
2019-05-18T19:33:46.770Z,11.53
2019-05-18T19:36:15.097Z,14.93
2019-05-18T19:38:43.436Z,14.30
2019-05-18T19:41:11.728Z,11.70
2019-05-18T19:43:40.081Z,12.55
2019-05-18T19:46:08.449Z,11.65
2019-05-18T19:48:36.896Z,16.30
2019-05-18T19:51:05.203Z,13.90
2019-05-18T19:53:33.523Z,11.57
2019-05-18T19:56:01.900Z,16.20
2019-05-18T19:58:30.241Z,14.70
2019-05-18T20:00:58.790Z,10.80
2019-05-18T20:03:27.103Z,10.53
2019-05-18T20:05:55.396Z,12.90
2019-05-18T20:08:23.735Z,12.53
2019-05-18T20:10:52.045Z,14.35
2019-05-18T20:13:20.379Z,12.23
2019-05-18T20:15:48.678Z,11.38
2019-05-18T20:18:16.999Z,8.68
2019-05-18T20:20:45.308Z,11.08
2019-05-18T20:23:13.781Z,9.45
2019-05-18T20:25:42.101Z,11.78
2019-05-18T20:28:22.968Z,13.38
2019-05-18T20:30:40.482Z,10.03
2019-05-18T20:33:08.814Z,10.80
2019-05-18T20:35:37.205Z,14.78
2019-05-18T20:38:05.592Z,15.88
2019-05-18T20:40:33.983Z,8.98
2019-05-18T20:43:02.554Z,10.40
2019-05-18T20:45:31.411Z,10.65
2019-05-18T20:47:59.800Z,8.93
2019-05-18T20:50:28.114Z,10.32
2019-05-18T20:52:56.502Z,7.87
2019-05-18T20:55:24.830Z,10.03
2019-05-18T20:57:53.129Z,10.43
2019-05-18T21:00:21.530Z,11.75
2019-05-18T21:02:49.861Z,8.83
2019-05-18T21:05:18.299Z,10.48
2019-05-18T21:07:48.984Z,11.75
2019-05-18T21:10:17.587Z,9.70
2019-05-18T21:12:45.895Z,9.63
2019-05-18T21:15:14.586Z,9.63
2019-05-18T21:17:42.892Z,13.88
2019-05-18T21:20:11.264Z,8.25
